Time;durP1;ratioP1;P1;durP2;ratioP2;P2;SDS_P1;SDS_P2;PMS_P1;PMS_P2;Temp;Humidity;BMP_temperature;BMP_pressure;BME280_temperature;BME280_humidity;BME280_pressure;Samples;Min_cycle;Max_cycle;Signal;HPM_P1;HPM_P2
2021/10/22 00:00:16;;;;;;;57.92;43.17;;;435.70;2355.20;;;;;;5067738;28;20035;-85
2021/10/22 00:02:42;;;;;;;59.15;43.88;;;435.70;2355.20;;;;;;5093543;28;20035;-86
2021/10/22 00:05:08;;;;;;;64.28;45.92;;;435.70;2355.20;;;;;;5092833;28;20028;-87
2021/10/22 00:07:34;;;;;;;58.85;46.35;;;435.70;2355.20;;;;;;5094700;28;20028;-86
2021/10/22 00:10:01;;;;;;;58.65;47.28;;;435.70;2355.20;;;;;;5074441;28;20120;-87
2021/10/22 00:12:26;;;;;;;64.75;48.22;;;435.70;2355.20;;;;;;5069220;28;20036;-85
2021/10/22 00:14:52;;;;;;;57.35;47.15;;;435.70;2355.20;;;;;;5086728;28;20032;-86
2021/10/22 00:17:18;;;;;;;61.03;47.00;;;435.70;2355.20;;;;;;5067282;28;20049;-86
2021/10/22 00:19:44;;;;;;;61.30;48.03;;;435.70;2355.20;;;;;;5059057;28;20046;-87
2021/10/22 00:22:10;;;;;;;66.03;49.33;;;435.60;2355.20;;;;;;5070464;28;20032;-87
2021/10/22 00:24:35;;;;;;;62.20;49.40;;;435.50;2355.20;;;;;;5057827;28;20033;-87
2021/10/22 00:27:01;;;;;;;66.43;50.78;;;435.50;2355.20;;;;;;5057699;28;20082;-88
2021/10/22 00:29:27;;;;;;;66.68;48.95;;;435.40;2355.20;;;;;;5069689;28;20054;-87
2021/10/22 00:31:53;;;;;;;66.38;50.15;;;435.30;2355.20;;;;;;5061226;28;20033;-87
2021/10/22 00:34:18;;;;;;;56.38;47.88;;;435.20;2355.20;;;;;;5057678;28;20025;-87
2021/10/22 00:36:44;;;;;;;61.08;49.13;;;435.20;2355.20;;;;;;5056862;28;20498;-87
2021/10/22 00:39:10;;;;;;;64.15;49.78;;;435.20;2355.20;;;;;;5063496;28;20033;-86
2021/10/22 00:41:38;;;;;;;56.60;46.67;;;435.20;2355.20;;;;;;5057506;28;20024;-87
2021/10/22 00:44:04;;;;;;;65.90;49.90;;;410.50;2355.20;;;;;;5060425;28;20024;-87
2021/10/22 00:46:32;;;;;;;74.65;49.78;;;410.40;2355.20;;;;;;5073691;28;20129;-88
2021/10/22 00:48:58;;;;;;;61.47;48.50;;;410.40;2355.20;;;;;;5075100;28;20035;-87
2021/10/22 00:51:27;;;;;;;66.18;47.75;;;410.40;2355.20;;;;;;5073966;28;20048;-88
2021/10/22 00:53:52;;;;;;;58.40;47.85;;;410.40;2355.20;;;;;;5070385;28;20058;-88
2021/10/22 00:56:18;;;;;;;59.80;48.05;;;410.50;2355.20;;;;;;5062473;28;20529;-89
2021/10/22 00:58:46;;;;;;;61.78;48.38;;;410.50;2355.20;;;;;;5056849;28;20025;-88
2021/10/22 01:01:11;;;;;;;64.28;50.03;;;435.20;2355.20;;;;;;5060952;28;20119;-89
2021/10/22 01:03:38;;;;;;;59.78;49.78;;;435.20;2355.20;;;;;;5057006;28;20052;-89
2021/10/22 01:06:04;;;;;;;65.03;48.47;;;435.20;2355.20;;;;;;5057009;28;20478;-89
2021/10/22 01:08:31;;;;;;;63.03;49.00;;;435.20;2355.20;;;;;;5073893;28;20024;-89
2021/10/22 01:11:00;;;;;;;74.32;51.67;;;435.20;2355.20;;;;;;5070968;28;20111;-89
2021/10/22 01:13:27;;;;;;;63.63;49.75;;;435.20;2355.20;;;;;;5066674;28;20060;-90
2021/10/22 01:15:53;;;;;;;68.93;51.45;;;435.20;2355.20;;;;;;5056701;28;20051;-90
2021/10/22 01:18:19;;;;;;;69.55;51.28;;;435.20;2355.20;;;;;;5061811;28;20032;-89
2021/10/22 01:20:45;;;;;;;65.30;51.20;;;410.50;2355.20;;;;;;5057127;28;20494;-90
2021/10/22 01:23:11;;;;;;;67.65;51.10;;;410.50;2355.20;;;;;;5056900;28;20029;-91
2021/10/22 01:25:37;;;;;;;71.07;51.65;;;410.50;2355.20;;;;;;5057061;28;20024;-91
2021/10/22 01:28:04;;;;;;;69.72;50.28;;;410.50;2355.20;;;;;;5071809;28;20463;-90
2021/10/22 01:30:31;;;;;;;52.17;42.05;;;410.50;2355.20;;;;;;5057151;28;20021;-91
2021/10/22 01:33:06;;;;;;;56.65;44.17;;;410.50;2355.20;;;;;;5070480;28;20108;-91
2021/10/22 01:35:32;;;;;;;57.17;41.95;;;410.50;2355.20;;;;;;5063806;28;20028;-91
2021/10/22 01:37:58;;;;;;;45.22;37.58;;;410.50;2355.20;;;;;;5055457;28;20033;-89
2021/10/22 01:40:24;;;;;;;45.78;35.85;;;410.50;2355.20;;;;;;5061617;28;20024;-89
2021/10/22 01:42:50;;;;;;;49.67;36.65;;;410.40;2355.20;;;;;;5056184;28;20043;-88
2021/10/22 01:45:16;;;;;;;45.88;34.50;;;435.20;2355.20;;;;;;5059697;28;20095;-89
2021/10/22 01:47:42;;;;;;;41.15;32.47;;;435.20;2355.20;;;;;;5055644;28;20028;-89
2021/10/22 01:50:08;;;;;;;38.45;31.48;;;435.20;2355.20;;;;;;5055226;28;20025;-89
2021/10/22 01:52:34;;;;;;;35.15;30.35;;;435.20;2355.20;;;;;;5056782;28;20039;-90
2021/10/22 01:55:00;;;;;;;41.55;32.30;;;435.20;2355.20;;;;;;5055786;28;20025;-90
2021/10/22 01:57:26;;;;;;;30.80;21.85;;;435.20;2355.20;;;;;;5073399;28;20024;-90
2021/10/22 01:59:52;;;;;;;27.38;20.15;;;435.30;2355.20;;;;;;5073492;28;20537;-91
2021/10/22 02:02:19;;;;;;;28.48;21.05;;;435.30;2355.20;;;;;;5059162;28;20024;-91
2021/10/22 02:04:45;;;;;;;23.00;18.40;;;435.30;2355.20;;;;;;5055941;28;20028;-92
2021/10/22 02:07:10;;;;;;;22.00;16.67;;;435.20;2355.20;;;;;;5056224;28;20028;-93
2021/10/22 02:09:37;;;;;;;20.25;14.48;;;410.50;2355.20;;;;;;5056185;28;20067;-93
2021/10/22 02:12:03;;;;;;;17.70;13.77;;;410.50;2355.20;;;;;;5070049;28;20017;-91
2021/10/22 02:14:29;;;;;;;22.90;13.80;;;410.40;2355.20;;;;;;5056191;28;20025;-93
2021/10/22 02:16:55;;;;;;;17.92;12.27;;;410.40;2355.20;;;;;;5056035;28;20086;-92
2021/10/22 02:19:20;;;;;;;16.02;12.27;;;410.30;2355.20;;;;;;5063332;28;20032;-93
2021/10/22 02:21:46;;;;;;;14.80;11.88;;;410.30;2355.20;;;;;;5062631;28;20490;-91
2021/10/22 02:24:12;;;;;;;15.23;10.43;;;410.20;2355.20;;;;;;5057872;28;20411;-91
2021/10/22 02:26:38;;;;;;;18.80;10.43;;;410.20;2355.20;;;;;;5073639;28;20434;-90
2021/10/22 02:29:04;;;;;;;12.02;9.52;;;410.10;2355.20;;;;;;5068626;28;20033;-90
2021/10/22 02:31:30;;;;;;;14.43;8.93;;;410.10;2355.20;;;;;;5062053;28;20016;-94
2021/10/22 02:33:57;;;;;;;11.18;7.63;;;410.10;2355.20;;;;;;5055382;28;20484;-92
2021/10/22 02:36:22;;;;;;;12.43;7.72;;;410.10;2355.20;;;;;;5072130;28;20490;-89
2021/10/22 02:38:49;;;;;;;8.88;6.68;;;410.10;2355.20;;;;;;5072423;28;20021;-89
2021/10/22 02:41:15;;;;;;;12.07;7.00;;;410.00;2355.20;;;;;;5041398;28;20057;-89
2021/10/22 02:43:41;;;;;;;12.55;6.65;;;410.00;2355.20;;;;;;5072210;28;20029;-89
2021/10/22 02:46:07;;;;;;;12.88;6.70;;;409.90;2355.20;;;;;;5072699;28;20098;-91
2021/10/22 02:48:33;;;;;;;10.05;6.75;;;409.90;2355.20;;;;;;5072084;28;20051;-91
2021/10/22 02:50:59;;;;;;;9.20;6.45;;;409.90;2355.20;;;;;;5071816;28;20116;-91
2021/10/22 02:53:25;;;;;;;10.32;6.15;;;409.90;2355.20;;;;;;5072560;28;20071;-91
2021/10/22 02:55:51;;;;;;;13.40;5.93;;;409.80;2355.20;;;;;;5072582;28;20020;-91
2021/10/22 02:58:17;;;;;;;9.63;5.50;;;409.80;2355.20;;;;;;5072058;28;20038;-91
2021/10/22 03:00:43;;;;;;;8.10;5.38;;;409.80;2355.20;;;;;;5072517;28;20111;-90
2021/10/22 03:03:08;;;;;;;6.70;4.47;;;409.80;2355.20;;;;;;5071896;28;20457;-89
2021/10/22 03:05:34;;;;;;;8.93;5.57;;;409.70;2355.20;;;;;;5072307;28;20542;-90
2021/10/22 03:08:00;;;;;;;9.10;3.83;;;409.70;2355.20;;;;;;5055400;28;20148;-91
2021/10/22 03:10:26;;;;;;;8.40;4.93;;;409.60;2355.20;;;;;;5055206;28;20479;-90
2021/10/22 03:12:53;;;;;;;9.27;4.82;;;409.60;2355.20;;;;;;5055444;28;20057;-90
2021/10/22 03:15:19;;;;;;;12.02;5.43;;;384.90;2329.60;;;;;;5071501;28;20024;-91
2021/10/22 03:17:45;;;;;;;8.52;5.78;;;384.90;2329.60;;;;;;5073374;28;20051;-90
2021/10/22 03:20:11;;;;;;;8.02;5.13;;;384.80;2329.60;;;;;;5055196;28;20103;-90
2021/10/22 03:22:38;;;;;;;8.95;5.15;;;384.80;2329.60;;;;;;5055214;28;20032;-90
2021/10/22 03:25:05;;;;;;;8.43;5.03;;;384.90;2329.60;;;;;;5074484;28;20099;-90
2021/10/22 03:27:32;;;;;;;7.78;4.97;;;384.90;2329.60;;;;;;5073505;28;20036;-87
2021/10/22 03:29:58;;;;;;;9.57;5.47;;;384.90;2329.60;;;;;;5077950;28;20040;-89
2021/10/22 03:32:24;;;;;;;10.13;4.93;;;384.90;2329.60;;;;;;5077313;28;20020;-84
2021/10/22 03:34:50;;;;;;;10.40;5.28;;;384.80;2329.60;;;;;;5079118;28;20021;-91
2021/10/22 03:37:16;;;;;;;7.82;4.47;;;384.80;2329.60;;;;;;5080079;28;20017;-90
2021/10/22 03:39:42;;;;;;;9.95;6.00;;;384.80;2329.60;;;;;;5085045;28;20040;-90
2021/10/22 03:42:09;;;;;;;6.95;5.15;;;384.70;2329.60;;;;;;5055789;28;20017;-90
2021/10/22 03:44:35;;;;;;;10.18;6.35;;;384.80;2329.60;;;;;;5073266;28;20056;-89
2021/10/22 03:47:01;;;;;;;9.70;5.50;;;384.80;2329.60;;;;;;5058070;28;20053;-89
2021/10/22 03:49:27;;;;;;;10.52;5.65;;;384.70;2329.60;;;;;;5058808;28;20023;-91
2021/10/22 03:51:53;;;;;;;8.25;5.40;;;384.70;2329.60;;;;;;5073105;28;20020;-88
2021/10/22 03:54:19;;;;;;;7.50;5.15;;;384.70;2329.60;;;;;;5076465;28;20028;-87
2021/10/22 03:56:45;;;;;;;8.48;5.07;;;384.70;2329.60;;;;;;5058035;28;20391;-86
2021/10/22 03:59:10;;;;;;;9.02;6.07;;;384.70;2329.60;;;;;;5066933;28;20028;-88
2021/10/22 04:01:36;;;;;;;9.20;5.78;;;384.70;2329.60;;;;;;5053088;28;20043;-89
2021/10/22 04:04:02;;;;;;;8.32;5.85;;;384.80;2329.60;;;;;;5056404;28;20124;-88
2021/10/22 04:06:28;;;;;;;9.02;6.07;;;384.80;2329.60;;;;;;5057623;28;20071;-82
2021/10/22 04:08:54;;;;;;;9.73;6.05;;;384.80;2329.60;;;;;;5073909;28;20021;-86
2021/10/22 04:11:20;;;;;;;9.75;5.78;;;384.80;2329.60;;;;;;5075424;28;20020;-86
2021/10/22 04:13:45;;;;;;;8.27;6.03;;;384.80;2329.60;;;;;;5073533;28;20035;-87
2021/10/22 04:16:11;;;;;;;10.80;6.05;;;384.80;2329.60;;;;;;5061168;28;20044;-85
2021/10/22 04:18:37;;;;;;;12.35;6.80;;;384.80;2329.60;;;;;;5074761;28;20499;-86
2021/10/22 04:21:03;;;;;;;13.57;7.15;;;384.70;2329.60;;;;;;5075680;28;20032;-84
2021/10/22 04:23:29;;;;;;;10.93;6.32;;;384.70;2329.60;;;;;;5079859;28;20028;-84
2021/10/22 04:25:54;;;;;;;10.70;7.25;;;384.50;2329.60;;;;;;5073483;28;20035;-85
2021/10/22 04:28:21;;;;;;;8.98;7.10;;;384.50;2329.60;;;;;;5081225;28;20052;-85
2021/10/22 04:30:47;;;;;;;10.05;6.80;;;384.40;2329.60;;;;;;5084504;28;20025;-85
2021/10/22 04:33:13;;;;;;;11.20;6.65;;;384.40;2329.60;;;;;;5074372;28;20032;-84
2021/10/22 04:35:38;;;;;;;11.25;7.97;;;384.40;2329.60;;;;;;5056286;28;20047;-83
2021/10/22 04:40:45;;;;;;;13.85;10.00;;;384.30;2329.60;;;;;;5074236;28;20074;-84
2021/10/22 04:43:16;;;;;;;14.43;10.32;;;384.20;2329.60;;;;;;5074184;28;20083;-83
2021/10/22 04:45:43;;;;;;;16.33;10.07;;;384.20;2329.60;;;;;;5074797;28;20041;-84
2021/10/22 04:48:12;;;;;;;15.32;9.35;;;384.20;2329.60;;;;;;5056422;28;20029;-85
2021/10/22 04:50:42;;;;;;;11.13;8.15;;;384.10;2329.60;;;;;;5073497;28;20024;-86
2021/10/22 04:53:08;;;;;;;11.57;7.25;;;384.20;2329.60;;;;;;5073199;28;20073;-85
2021/10/22 04:55:35;;;;;;;12.38;7.75;;;384.30;2329.60;;;;;;5073519;28;20029;-86
2021/10/22 04:58:00;;;;;;;13.85;9.18;;;384.20;2329.60;;;;;;5072563;28;20036;-87
2021/10/22 05:00:26;;;;;;;10.88;7.45;;;384.20;2329.60;;;;;;5072841;28;20040;-87
2021/10/22 05:02:52;;;;;;;10.27;6.93;;;384.10;2329.60;;;;;;5070220;28;20046;-87
2021/10/22 05:05:18;;;;;;;12.57;7.63;;;384.00;2329.60;;;;;;5059310;28;20040;-87
2021/10/22 05:07:44;;;;;;;10.10;7.85;;;384.00;2329.60;;;;;;5059446;28;20021;-88
2021/10/22 05:10:11;;;;;;;11.65;7.57;;;384.00;2329.60;;;;;;5077704;28;20515;-90
2021/10/22 05:12:36;;;;;;;9.23;6.13;;;359.30;2329.60;;;;;;5061494;28;20028;-88
2021/10/22 05:15:04;;;;;;;10.50;7.15;;;359.20;2329.60;;;;;;5065698;28;20085;-89
2021/10/22 05:17:32;;;;;;;9.18;6.22;;;359.10;2329.60;;;;;;5055841;28;20064;-88
2021/10/22 05:19:58;;;;;;;10.25;6.53;;;359.10;2329.60;;;;;;5049511;28;20086;-88
2021/10/22 05:22:24;;;;;;;10.38;5.97;;;359.10;2329.60;;;;;;5078481;28;20031;-89
2021/10/22 05:24:49;;;;;;;9.35;5.40;;;359.10;2329.60;;;;;;5072498;28;20035;-89
2021/10/22 05:27:16;;;;;;;8.13;4.70;;;359.10;2329.60;;;;;;5053012;28;20032;-88
2021/10/22 05:29:42;;;;;;;7.82;4.57;;;359.10;2329.60;;;;;;5061568;28;20086;-89
2021/10/22 05:32:08;;;;;;;7.07;4.25;;;359.00;2329.60;;;;;;5052669;28;20475;-89
2021/10/22 05:34:34;;;;;;;10.80;4.28;;;358.90;2329.60;;;;;;5056483;28;20060;-88
2021/10/22 05:36:59;;;;;;;8.55;4.95;;;358.90;2329.60;;;;;;5060739;28;20441;-88
2021/10/22 05:39:25;;;;;;;9.43;4.60;;;358.90;2329.60;;;;;;5074618;28;20029;-88
2021/10/22 05:41:51;;;;;;;6.38;4.05;;;358.80;2329.60;;;;;;5066314;28;20025;-88
2021/10/22 05:44:19;;;;;;;9.45;3.50;;;358.80;2329.60;;;;;;5055965;28;20036;-87
2021/10/22 05:46:46;;;;;;;7.75;3.45;;;358.80;2329.60;;;;;;5084416;28;20605;-86
2021/10/22 05:49:12;;;;;;;5.63;3.15;;;358.80;2329.60;;;;;;5069621;28;20031;-87
2021/10/22 05:51:38;;;;;;;9.07;4.30;;;358.70;2329.60;;;;;;5072625;28;20157;-88
2021/10/22 05:54:04;;;;;;;4.93;3.50;;;358.70;2329.60;;;;;;5074336;28;20024;-89
2021/10/22 05:56:30;;;;;;;5.18;3.15;;;358.70;2329.60;;;;;;5053125;28;20033;-89
2021/10/22 05:58:56;;;;;;;7.50;3.35;;;358.60;2329.60;;;;;;5078998;28;20030;-87
2021/10/22 06:01:25;;;;;;;5.28;3.38;;;358.60;2329.60;;;;;;5065027;28;20442;-85
2021/10/22 06:03:51;;;;;;;4.72;3.58;;;358.60;2329.60;;;;;;5060813;28;20058;-86
2021/10/22 06:06:17;;;;;;;6.40;3.85;;;358.60;2329.60;;;;;;5071188;28;20056;-84
2021/10/22 06:08:44;;;;;;;6.43;3.17;;;358.40;2329.60;;;;;;5055964;28;20071;-85
2021/10/22 06:11:11;;;;;;;6.50;3.20;;;358.60;2329.60;;;;;;5085736;28;20021;-85
2021/10/22 06:13:41;;;;;;;8.65;4.22;;;358.60;2329.60;;;;;;5060435;28;20083;-86
2021/10/22 06:16:09;;;;;;;6.03;3.78;;;358.50;2329.60;;;;;;5053845;28;20041;-86
2021/10/22 06:18:44;;;;;;;6.95;3.95;;;358.40;2329.60;;;;;;5053779;28;20025;-86
2021/10/22 06:21:17;;;;;;;5.93;3.97;;;358.40;2329.60;;;;;;5037096;28;20435;-86
2021/10/22 06:23:56;;;;;;;8.90;4.75;;;358.40;2329.60;;;;;;5053918;28;20471;-86
2021/10/22 06:26:24;;;;;;;8.23;4.32;;;358.40;2329.60;;;;;;5030991;28;20025;-85
2021/10/22 06:28:51;;;;;;;9.00;5.45;;;358.50;2329.60;;;;;;5039021;28;20065;-86
2021/10/22 06:31:17;;;;;;;9.65;5.60;;;358.50;2329.60;;;;;;5036604;28;20029;-86
2021/10/22 06:33:43;;;;;;;12.40;5.88;;;358.60;2329.60;;;;;;5032795;28;20515;-86
2021/10/22 06:36:09;;;;;;;11.18;5.57;;;358.60;2329.60;;;;;;5038344;28;20025;-85
2021/10/22 06:38:35;;;;;;;12.18;7.05;;;358.70;2329.60;;;;;;5036930;28;20025;-85
2021/10/22 06:41:02;;;;;;;13.32;6.85;;;358.80;2329.60;;;;;;5053014;28;20037;-86
2021/10/22 06:43:28;;;;;;;9.02;6.90;;;358.70;2329.60;;;;;;5036244;28;20041;-85
2021/10/22 06:45:54;;;;;;;10.82;5.88;;;358.80;2329.60;;;;;;5038186;28;20361;-86
2021/10/22 06:48:20;;;;;;;10.98;5.53;;;358.80;2329.60;;;;;;5051622;28;20063;-87
2021/10/22 06:50:46;;;;;;;7.88;5.82;;;358.80;2329.60;;;;;;5055516;28;20036;-86
2021/10/22 06:53:13;;;;;;;10.32;4.65;;;358.80;2329.60;;;;;;5049922;28;20025;-86
2021/10/22 06:55:39;;;;;;;8.48;4.70;;;358.80;2329.60;;;;;;5058252;28;20415;-86
2021/10/22 06:58:05;;;;;;;14.05;8.27;;;358.60;2329.60;;;;;;5037611;28;20030;-84
2021/10/22 07:00:33;;;;;;;11.98;6.68;;;358.80;2329.60;;;;;;5059777;28;20032;-85
2021/10/22 07:02:58;;;;;;;16.35;8.65;;;358.70;2329.60;;;;;;5054277;28;20029;-86
2021/10/22 07:05:48;;;;;;;14.30;7.43;;;358.70;2329.60;;;;;;5057785;28;20033;-86
2021/10/22 07:08:13;;;;;;;13.05;7.30;;;358.70;2329.60;;;;;;5044934;28;20032;-86
2021/10/22 07:10:39;;;;;;;13.35;6.88;;;358.80;2329.60;;;;;;5059216;28;20033;-88
2021/10/22 07:13:05;;;;;;;18.35;7.95;;;358.80;2329.60;;;;;;5062343;28;20021;-87
2021/10/22 07:15:31;;;;;;;15.32;8.52;;;358.90;2329.60;;;;;;5053855;28;20484;-88
2021/10/22 07:18:00;;;;;;;19.08;10.77;;;358.90;2329.60;;;;;;5082414;28;20040;-87
2021/10/22 07:20:27;;;;;;;16.27;8.20;;;358.90;2329.60;;;;;;5052102;28;20028;-87
2021/10/22 07:22:56;;;;;;;27.88;17.17;;;358.90;2329.60;;;;;;5060129;28;20032;-87
2021/10/22 07:25:24;;;;;;;23.75;14.13;;;358.90;2329.60;;;;;;5059267;28;20024;-88
2021/10/22 07:27:51;;;;;;;20.15;14.30;;;358.90;2329.60;;;;;;5059139;28;20055;-88
2021/10/22 07:30:17;;;;;;;20.45;12.63;;;359.00;2329.60;;;;;;5065548;28;20034;-86
2021/10/22 07:32:43;;;;;;;17.48;10.05;;;359.10;2329.60;;;;;;5059570;28;20165;-89
2021/10/22 07:35:10;;;;;;;22.80;14.07;;;359.10;2329.60;;;;;;5059123;28;20021;-90
2021/10/22 07:37:36;;;;;;;26.95;16.35;;;359.10;2329.60;;;;;;5059771;28;20506;-89
2021/10/22 07:40:04;;;;;;;24.65;16.40;;;359.10;2329.60;;;;;;5053623;28;20040;-88
2021/10/22 07:42:30;;;;;;;17.25;11.00;;;359.10;2329.60;;;;;;5059956;28;20134;-89
2021/10/22 07:44:59;;;;;;;14.57;10.05;;;359.30;2329.60;;;;;;5058589;28;20029;-88
2021/10/22 07:47:31;;;;;;;12.57;8.40;;;359.20;2329.60;;;;;;5058261;28;20039;-87
2021/10/22 07:49:57;;;;;;;12.38;6.88;;;359.30;2329.60;;;;;;5058808;28;20016;-87
2021/10/22 07:52:25;;;;;;;9.82;6.55;;;359.30;2329.60;;;;;;5059943;28;20126;-86
2021/10/22 07:54:51;;;;;;;6.60;4.97;;;384.00;2329.60;;;;;;5074704;28;20033;-84
2021/10/22 07:57:18;;;;;;;6.63;5.55;;;384.10;2329.60;;;;;;5073300;28;20033;-84
2021/10/22 07:59:45;;;;;;;9.00;5.93;;;384.10;2329.60;;;;;;5058028;28;20095;-84
2021/10/22 08:02:12;;;;;;;10.15;6.68;;;384.20;2329.60;;;;;;5056667;28;20552;-83
2021/10/22 08:04:39;;;;;;;14.82;7.85;;;384.20;2329.60;;;;;;5075192;28;20076;-83
2021/10/22 08:07:05;;;;;;;13.95;8.50;;;384.30;2329.60;;;;;;5042385;28;20033;-88
2021/10/22 08:09:31;;;;;;;11.45;7.45;;;384.30;2329.60;;;;;;5058645;28;20028;-88
2021/10/22 08:11:57;;;;;;;12.00;8.55;;;384.30;2329.60;;;;;;5082581;28;20375;-88
2021/10/22 08:14:23;;;;;;;10.77;7.20;;;384.40;2329.60;;;;;;5047042;28;20087;-89
2021/10/22 08:16:49;;;;;;;11.10;7.22;;;384.40;2329.60;;;;;;5053849;28;20519;-87
2021/10/22 08:19:16;;;;;;;9.70;6.93;;;384.50;2329.60;;;;;;5055907;28;20102;-88
2021/10/22 08:24:10;;;;;;;13.63;7.47;;;384.60;2329.60;;;;;;5057487;28;20032;-87
2021/10/22 08:26:37;;;;;;;10.00;6.80;;;384.60;2329.60;;;;;;5053549;28;20459;-88
2021/10/22 08:29:04;;;;;;;9.70;6.90;;;384.70;2329.60;;;;;;5053054;28;20040;-89
2021/10/22 08:31:30;;;;;;;12.48;6.50;;;384.60;2329.60;;;;;;5052806;28;20029;-88
2021/10/22 08:33:56;;;;;;;21.92;11.55;;;384.70;2329.60;;;;;;5063586;28;20021;-87
2021/10/22 08:36:22;;;;;;;15.98;9.70;;;384.70;2329.60;;;;;;5054217;28;20502;-87
2021/10/22 08:38:48;;;;;;;21.58;13.50;;;384.80;2329.60;;;;;;5053125;28;20025;-87
2021/10/22 08:41:15;;;;;;;18.20;12.13;;;384.90;2329.60;;;;;;5050330;28;20017;-84
2021/10/22 08:43:42;;;;;;;22.67;12.20;;;384.90;2329.60;;;;;;5050341;28;20706;-84
2021/10/22 08:46:13;;;;;;;15.30;9.93;;;384.90;2329.60;;;;;;5051307;28;20101;-85
2021/10/22 08:48:40;;;;;;;12.10;7.85;;;409.60;2355.20;;;;;;5053746;28;20045;-86
2021/10/22 08:51:06;;;;;;;10.18;6.70;;;409.60;2355.20;;;;;;5052494;28;20388;-78
2021/10/22 08:53:35;;;;;;;9.88;6.60;;;409.60;2355.20;;;;;;5055558;28;20017;-84
2021/10/22 08:56:03;;;;;;;9.25;5.85;;;409.70;2355.20;;;;;;5058812;28;20028;-83
2021/10/22 08:58:30;;;;;;;14.20;6.75;;;409.90;2355.20;;;;;;5059017;28;20115;-83
2021/10/22 09:00:55;;;;;;;9.63;6.25;;;410.10;2355.20;;;;;;5052987;28;20028;-84
2021/10/22 09:03:21;;;;;;;11.00;6.35;;;410.10;2355.20;;;;;;5067456;28;20040;-82
2021/10/22 09:06:05;;;;;;;9.55;6.18;;;410.20;2355.20;;;;;;5053485;28;20040;-83
2021/10/22 09:08:32;;;;;;;15.85;9.82;;;410.30;2355.20;;;;;;5066479;28;20052;-82
2021/10/22 09:10:59;;;;;;;23.67;14.57;;;410.40;2355.20;;;;;;5060372;28;20017;-82
2021/10/22 09:13:35;;;;;;;18.20;13.50;;;435.20;2355.20;;;;;;5052142;28;20074;-80
2021/10/22 09:16:28;;;;;;;18.45;11.15;;;435.40;2355.20;;;;;;5050408;28;20072;-79
2021/10/22 09:18:54;;;;;;;24.27;13.75;;;435.50;2355.20;;;;;;5040415;28;20048;-82
2021/10/22 09:21:31;;;;;;;17.83;10.95;;;435.90;2355.20;;;;;;5053086;28;20041;-81
2021/10/22 09:24:12;;;;;;;;;;;436.00;2355.20;;;;;;5053186;28;20045;-80
2021/10/22 09:26:37;;;;;;;15.25;9.60;;;436.10;2355.20;;;;;;5052376;28;19995;-81
2021/10/22 09:29:18;;;;;;;13.98;7.85;;;436.10;2355.20;;;;;;5066423;28;20124;-80
2021/10/22 09:31:49;;;;;;;19.50;8.57;;;460.80;2380.80;;;;;;5050881;28;20504;-81
2021/10/22 09:34:33;;;;;;;12.55;6.72;;;461.00;2380.80;;;;;;5050544;28;20088;-80
2021/10/22 09:37:12;;;;;;;14.55;10.00;;;461.00;2380.80;;;;;;5059896;28;20044;-81
2021/10/22 09:39:39;;;;;;;10.40;7.40;;;461.30;2380.80;;;;;;5048118;28;20047;-80
2021/10/22 09:42:18;;;;;;;10.30;5.78;;;461.30;2380.80;;;;;;5049423;28;20078;-80
2021/10/22 09:44:46;;;;;;;8.30;6.07;;;461.30;2380.80;;;;;;5049462;28;20468;-80
2021/10/22 09:47:19;;;;;;;12.57;5.90;;;461.40;2380.80;;;;;;5046749;28;20037;-79
2021/10/22 09:49:50;;;;;;;12.27;7.68;;;461.30;2380.80;;;;;;5049894;28;20419;-80
2021/10/22 09:52:18;;;;;;;12.15;7.03;;;461.30;2380.80;;;;;;5046214;28;20160;-80
2021/10/22 09:54:46;;;;;;;8.63;5.43;;;461.20;2380.80;;;;;;5059328;28;20658;-78
2021/10/22 09:57:15;;;;;;;11.77;6.53;;;461.30;2380.80;;;;;;5049632;28;20502;-80
2021/10/22 09:59:42;;;;;;;12.73;7.32;;;461.30;2380.80;;;;;;5052600;28;20095;-79
2021/10/22 10:02:09;;;;;;;10.93;7.72;;;461.30;2380.80;;;;;;5047683;28;20091;-80
2021/10/22 10:04:36;;;;;;;12.65;8.23;;;461.10;2380.80;;;;;;5058242;28;20020;-80
2021/10/22 10:07:04;;;;;;;21.52;10.23;;;461.20;2380.80;;;;;;5061630;28;20123;-79
2021/10/22 10:09:30;;;;;;;15.18;10.18;;;461.20;2380.80;;;;;;5049275;28;20052;-79
2021/10/22 10:11:58;;;;;;;11.27;7.28;;;461.10;2380.80;;;;;;5051671;28;20533;-80
2021/10/22 10:14:27;;;;;;;11.10;7.30;;;461.00;2380.80;;;;;;5066342;28;20025;-80
2021/10/22 10:16:54;;;;;;;10.25;7.53;;;460.90;2380.80;;;;;;5049440;28;20041;-80
2021/10/22 10:19:25;;;;;;;11.05;7.70;;;460.80;2380.80;;;;;;5050656;28;20026;-81
2021/10/22 10:22:02;;;;;;;11.60;7.68;;;460.80;2380.80;;;;;;5049916;28;20037;-80
2021/10/22 10:24:40;;;;;;;23.85;14.98;;;460.80;2380.80;;;;;;5048745;28;20020;-81
2021/10/22 10:27:12;;;;;;;10.02;7.28;;;460.80;2380.80;;;;;;5044853;28;20403;-79
2021/10/22 10:30:00;;;;;;;16.23;9.05;;;460.80;2380.80;;;;;;5054586;28;20039;-81
2021/10/22 10:32:28;;;;;;;20.80;12.70;;;460.80;2380.80;;;;;;5049906;28;20033;-79
2021/10/22 10:34:59;;;;;;;17.33;12.10;;;436.00;2355.20;;;;;;5052282;28;20037;-80
2021/10/22 10:37:31;;;;;;;14.63;10.20;;;435.90;2355.20;;;;;;5068802;28;20399;-80
2021/10/22 10:40:09;;;;;;;17.65;11.75;;;435.70;2355.20;;;;;;5065385;28;20036;-80
2021/10/22 10:42:38;;;;;;;15.68;10.30;;;435.70;2355.20;;;;;;5062123;28;20033;-80
2021/10/22 10:45:25;;;;;;;19.02;11.02;;;435.70;2355.20;;;;;;5049126;28;20108;-81
2021/10/22 10:47:58;;;;;;;14.88;8.60;;;435.70;2355.20;;;;;;5046287;28;20036;-81
2021/10/22 10:50:59;;;;;;;14.32;9.13;;;435.60;2355.20;;;;;;5050588;28;20502;-80
2021/10/22 10:53:41;;;;;;;15.88;12.15;;;435.70;2355.20;;;;;;5049131;28;20068;-80
2021/10/22 10:56:36;;;;;;;17.55;11.45;;;435.60;2355.20;;;;;;5053470;28;20506;-80
2021/10/22 10:59:02;;;;;;;16.52;11.40;;;435.50;2355.20;;;;;;5057270;28;20024;-81
2021/10/22 11:01:38;;;;;;;27.38;17.38;;;435.50;2355.20;;;;;;5055453;28;20058;-81
2021/10/22 11:04:05;;;;;;;14.38;10.38;;;435.50;2355.20;;;;;;5058286;28;20022;-82
2021/10/22 11:06:41;;;;;;;20.38;12.10;;;435.40;2355.20;;;;;;5062925;28;20086;-82
2021/10/22 11:09:07;;;;;;;16.35;10.38;;;435.50;2355.20;;;;;;5059792;28;20025;-81
2021/10/22 11:11:38;;;;;;;12.20;9.05;;;435.40;2355.20;;;;;;5056059;28;20048;-81
2021/10/22 11:14:08;;;;;;;11.02;7.95;;;435.50;2355.20;;;;;;5058791;28;20060;-81
2021/10/22 11:16:47;;;;;;;12.88;8.18;;;435.60;2355.20;;;;;;5056966;28;20048;-79
2021/10/22 11:19:14;;;;;;;25.75;14.13;;;435.70;2355.20;;;;;;5051918;28;20028;-79
2021/10/22 11:21:48;;;;;;;18.52;8.90;;;435.80;2355.20;;;;;;5059359;28;20019;-80
2021/10/22 11:24:17;;;;;;;17.25;10.45;;;435.70;2355.20;;;;;;5073716;28;20044;-80
2021/10/22 11:26:44;;;;;;;15.13;10.75;;;435.50;2355.20;;;;;;5057463;28;20045;-81
2021/10/22 11:29:18;;;;;;;19.27;12.05;;;435.70;2355.20;;;;;;5053501;28;20044;-80
2021/10/22 11:31:51;;;;;;;16.48;11.00;;;435.70;2355.20;;;;;;5052504;28;20037;-81
2021/10/22 11:34:37;;;;;;;16.02;12.63;;;435.70;2355.20;;;;;;5052172;28;20059;-80
2021/10/22 11:37:13;;;;;;;15.20;11.63;;;435.70;2355.20;;;;;;5055441;28;20025;-81
2021/10/22 11:39:49;;;;;;;13.48;9.40;;;435.70;2355.20;;;;;;5056135;28;20043;-80
2021/10/22 11:42:26;;;;;;;19.98;11.02;;;435.80;2355.20;;;;;;5056569;28;20025;-81
2021/10/22 11:44:56;;;;;;;17.38;10.90;;;435.90;2355.20;;;;;;5056390;28;20025;-82
2021/10/22 11:47:30;;;;;;;18.35;12.85;;;435.90;2355.20;;;;;;5072081;28;20037;-81
2021/10/22 11:50:32;;;;;;;16.17;11.00;;;436.00;2355.20;;;;;;5042064;28;20057;-83
2021/10/22 11:53:13;;;;;;;18.92;14.02;;;436.00;2355.20;;;;;;5053222;28;20127;-80
2021/10/22 11:55:40;;;;;;;20.25;13.00;;;436.00;2355.20;;;;;;5053051;28;20025;-80
2021/10/22 11:58:08;;;;;;;21.15;13.48;;;436.00;2355.20;;;;;;5056361;28;20433;-80
2021/10/22 12:00:35;;;;;;;21.42;14.35;;;460.80;2380.80;;;;;;5055415;28;20078;-81
2021/10/22 12:03:01;;;;;;;20.73;16.58;;;460.80;2380.80;;;;;;5053176;28;20031;-80
2021/10/22 12:05:27;;;;;;;17.25;13.43;;;460.90;2380.80;;;;;;5055189;28;20097;-82
2021/10/22 12:07:58;;;;;;;22.48;16.13;;;460.80;2380.80;;;;;;5052887;28;20136;-81
2021/10/22 12:10:27;;;;;;;18.70;13.05;;;460.90;2380.80;;;;;;5051534;28;20562;-79
2021/10/22 12:12:54;;;;;;;16.48;10.73;;;461.00;2380.80;;;;;;5052730;28;20039;-81
2021/10/22 12:15:26;;;;;;;14.23;10.98;;;461.00;2380.80;;;;;;5051828;28;20123;-80